sensor_id;sensor_type;location;lat;lon;timestamp;pressure;altitude;pressure_sealevel;temperature;humidity
14882;BME280;7533;51.278;12.588;2022-12-31T00:04:28;99413.59;;;22.42;63.70
14882;BME280;7533;51.278;12.588;2022-12-31T00:09:31;99404.47;;;22.64;63.57
14882;BME280;7533;51.278;12.588;2022-12-31T00:14:34;99390.91;;;22.76;63.26
14882;BME280;7533;51.278;12.588;2022-12-31T00:19:39;99399.28;;;22.82;62.74
14882;BME280;7533;51.278;12.588;2022-12-31T00:24:42;99405.09;;;22.78;62.65
14882;BME280;7533;51.278;12.588;2022-12-31T00:29:45;99419.75;;;22.85;62.50
14882;BME280;7533;51.278;12.588;2022-12-31T00:34:49;99428.06;;;22.93;62.54
14882;BME280;7533;51.278;12.588;2022-12-31T00:39:52;99443.00;;;22.97;62.36
14882;BME280;7533;51.278;12.588;2022-12-31T00:44:55;99439.16;;;23.00;62.20
14882;BME280;7533;51.278;12.588;2022-12-31T00:50:00;99458.47;;;23.05;62.21
14882;BME280;7533;51.278;12.588;2022-12-31T00:55:03;99461.78;;;23.08;62.10
14882;BME280;7533;51.278;12.588;2022-12-31T01:00:07;99468.72;;;23.11;62.06
14882;BME280;7533;51.278;12.588;2022-12-31T01:05:12;99479.41;;;23.12;61.96
14882;BME280;7533;51.278;12.588;2022-12-31T01:10:15;99478.97;;;23.17;62.01
14882;BME280;7533;51.278;12.588;2022-12-31T01:15:39;99489.53;;;23.20;61.83
14882;BME280;7533;51.278;12.588;2022-12-31T01:20:43;99502.31;;;23.18;61.86
14882;BME280;7533;51.278;12.588;2022-12-31T01:25:46;99522.75;;;23.20;61.83
14882;BME280;7533;51.278;12.588;2022-12-31T01:30:49;99521.63;;;23.23;61.77
14882;BME280;7533;51.278;12.588;2022-12-31T01:35:54;99524.91;;;23.27;61.57
14882;BME280;7533;51.278;12.588;2022-12-31T01:40:57;99533.88;;;23.27;61.62
14882;BME280;7533;51.278;12.588;2022-12-31T01:46:00;99546.50;;;23.27;62.03
14882;BME280;7533;51.278;12.588;2022-12-31T01:51:08;99542.81;;;23.28;62.09
14882;BME280;7533;51.278;12.588;2022-12-31T01:56:11;99540.97;;;23.28;61.98
14882;BME280;7533;51.278;12.588;2022-12-31T02:01:22;99537.31;;;23.29;61.77
14882;BME280;7533;51.278;12.588;2022-12-31T02:06:31;99523.91;;;23.28;62.03
14882;BME280;7533;51.278;12.588;2022-12-31T02:11:38;99521.09;;;23.29;62.17
14882;BME280;7533;51.278;12.588;2022-12-31T02:16:47;99511.28;;;23.28;62.12
14882;BME280;7533;51.278;12.588;2022-12-31T02:22:00;99544.84;;;23.35;62.03
14882;BME280;7533;51.278;12.588;2022-12-31T02:27:11;99525.81;;;23.37;62.01
14882;BME280;7533;51.278;12.588;2022-12-31T02:32:23;99515.72;;;23.39;62.07
14882;BME280;7533;51.278;12.588;2022-12-31T02:37:32;99514.59;;;23.41;62.00
14882;BME280;7533;51.278;12.588;2022-12-31T02:42:37;99517.31;;;23.41;61.93
14882;BME280;7533;51.278;12.588;2022-12-31T02:47:51;99522.13;;;23.38;61.92
14882;BME280;7533;51.278;12.588;2022-12-31T02:53:06;99527.81;;;23.44;62.15
14882;BME280;7533;51.278;12.588;2022-12-31T02:58:18;99528.09;;;23.41;62.11
14882;BME280;7533;51.278;12.588;2022-12-31T03:03:45;99517.16;;;23.43;62.17
14882;BME280;7533;51.278;12.588;2022-12-31T03:08:48;99509.19;;;23.51;61.87
14882;BME280;7533;51.278;12.588;2022-12-31T03:14:11;99521.59;;;23.54;61.96
14882;BME280;7533;51.278;12.588;2022-12-31T03:19:15;99521.19;;;23.58;61.86
14882;BME280;7533;51.278;12.588;2022-12-31T03:24:35;99506.81;;;23.58;62.01
14882;BME280;7533;51.278;12.588;2022-12-31T03:29:56;99512.94;;;23.60;61.86
14882;BME280;7533;51.278;12.588;2022-12-31T03:35:00;99515.50;;;23.61;61.89
14882;BME280;7533;51.278;12.588;2022-12-31T03:40:04;99510.00;;;23.63;61.93
14882;BME280;7533;51.278;12.588;2022-12-31T03:45:09;99502.84;;;23.62;62.07
14882;BME280;7533;51.278;12.588;2022-12-31T03:50:15;99507.31;;;23.63;62.07
14882;BME280;7533;51.278;12.588;2022-12-31T03:55:19;99500.13;;;23.62;61.94
14882;BME280;7533;51.278;12.588;2022-12-31T04:00:21;99486.63;;;23.62;62.28
14882;BME280;7533;51.278;12.588;2022-12-31T04:05:25;99476.16;;;23.68;61.96
14882;BME280;7533;51.278;12.588;2022-12-31T04:10:28;99476.44;;;23.65;61.94
14882;BME280;7533;51.278;12.588;2022-12-31T04:15:31;99473.47;;;23.68;61.85
14882;BME280;7533;51.278;12.588;2022-12-31T04:20:35;99469.19;;;23.66;62.15
14882;BME280;7533;51.278;12.588;2022-12-31T04:25:38;99453.81;;;23.66;62.16
14882;BME280;7533;51.278;12.588;2022-12-31T04:30:44;99455.25;;;23.70;62.11
14882;BME280;7533;51.278;12.588;2022-12-31T04:35:49;99468.63;;;23.72;61.96
14882;BME280;7533;51.278;12.588;2022-12-31T04:40:51;99466.06;;;23.70;62.07
14882;BME280;7533;51.278;12.588;2022-12-31T04:46:13;99452.41;;;23.72;61.99
14882;BME280;7533;51.278;12.588;2022-12-31T04:51:18;99462.94;;;23.65;62.21
14882;BME280;7533;51.278;12.588;2022-12-31T04:56:21;99472.31;;;23.71;62.08
14882;BME280;7533;51.278;12.588;2022-12-31T05:01:24;99473.59;;;23.77;61.96
14882;BME280;7533;51.278;12.588;2022-12-31T05:06:28;99470.31;;;23.73;62.11
14882;BME280;7533;51.278;12.588;2022-12-31T05:11:31;99483.72;;;23.74;61.98
14882;BME280;7533;51.278;12.588;2022-12-31T05:16:34;99479.72;;;23.79;61.97
14882;BME280;7533;51.278;12.588;2022-12-31T05:21:38;99479.00;;;23.77;62.11
14882;BME280;7533;51.278;12.588;2022-12-31T05:26:41;99462.94;;;23.75;62.12
14882;BME280;7533;51.278;12.588;2022-12-31T05:31:44;99472.03;;;23.84;61.84
14882;BME280;7533;51.278;12.588;2022-12-31T05:36:48;99477.16;;;23.77;62.08
14882;BME280;7533;51.278;12.588;2022-12-31T05:41:51;99472.88;;;23.84;61.97
14882;BME280;7533;51.278;12.588;2022-12-31T05:46:54;99475.59;;;23.74;62.36
14882;BME280;7533;51.278;12.588;2022-12-31T05:51:58;99472.34;;;23.81;62.09
14882;BME280;7533;51.278;12.588;2022-12-31T05:57:01;99490.25;;;23.82;62.31
14882;BME280;7533;51.278;12.588;2022-12-31T06:02:04;99478.00;;;23.78;62.44
14882;BME280;7533;51.278;12.588;2022-12-31T06:07:08;99463.81;;;23.75;62.54
14882;BME280;7533;51.278;12.588;2022-12-31T06:12:11;99464.38;;;23.69;62.66
14882;BME280;7533;51.278;12.588;2022-12-31T06:17:14;99452.13;;;23.65;62.77
14882;BME280;7533;51.278;12.588;2022-12-31T06:22:18;99449.81;;;23.61;62.83
14882;BME280;7533;51.278;12.588;2022-12-31T06:27:21;99460.88;;;23.48;63.00
14882;BME280;7533;51.278;12.588;2022-12-31T06:32:25;99462.44;;;23.41;63.10
14882;BME280;7533;51.278;12.588;2022-12-31T06:37:30;99463.84;;;23.35;63.29
14882;BME280;7533;51.278;12.588;2022-12-31T06:42:33;99477.31;;;23.26;63.49
14882;BME280;7533;51.278;12.588;2022-12-31T06:47:36;99481.56;;;23.18;63.56
14882;BME280;7533;51.278;12.588;2022-12-31T06:52:40;99483.53;;;23.16;63.72
14882;BME280;7533;51.278;12.588;2022-12-31T06:57:43;99480.66;;;23.08;63.97
14882;BME280;7533;51.278;12.588;2022-12-31T07:03:08;99482.47;;;22.98;63.76
14882;BME280;7533;51.278;12.588;2022-12-31T07:08:28;99482.72;;;22.95;64.13
14882;BME280;7533;51.278;12.588;2022-12-31T07:14:02;99484.53;;;22.85;64.36
14882;BME280;7533;51.278;12.588;2022-12-31T07:19:16;99481.94;;;22.83;64.45
14882;BME280;7533;51.278;12.588;2022-12-31T07:24:24;99479.53;;;22.80;64.67
14882;BME280;7533;51.278;12.588;2022-12-31T07:29:39;99495.50;;;22.72;64.79
14882;BME280;7533;51.278;12.588;2022-12-31T07:34:52;99502.03;;;22.69;64.92
14882;BME280;7533;51.278;12.588;2022-12-31T07:40:04;99506.97;;;22.64;65.17
14882;BME280;7533;51.278;12.588;2022-12-31T07:45:18;99504.66;;;22.60;65.23
14882;BME280;7533;51.278;12.588;2022-12-31T07:50:23;99524.94;;;22.54;65.42
14882;BME280;7533;51.278;12.588;2022-12-31T07:55:27;99523.22;;;22.53;65.53
14882;BME280;7533;51.278;12.588;2022-12-31T08:00:30;99534.06;;;22.42;65.23
14882;BME280;7533;51.278;12.588;2022-12-31T08:05:40;99539.28;;;22.34;64.83
14882;BME280;7533;51.278;12.588;2022-12-31T08:10:59;99540.28;;;22.22;65.05
14882;BME280;7533;51.278;12.588;2022-12-31T08:16:10;99545.75;;;22.31;64.79
14882;BME280;7533;51.278;12.588;2022-12-31T08:21:23;99549.19;;;22.33;64.62
14882;BME280;7533;51.278;12.588;2022-12-31T08:26:41;99554.00;;;22.30;64.48
14882;BME280;7533;51.278;12.588;2022-12-31T08:32:00;99555.44;;;22.34;64.29
14882;BME280;7533;51.278;12.588;2022-12-31T08:37:09;99556.03;;;22.37;64.02
14882;BME280;7533;51.278;12.588;2022-12-31T08:42:22;99557.78;;;22.27;64.12
14882;BME280;7533;51.278;12.588;2022-12-31T08:47:34;99564.31;;;22.25;64.11
14882;BME280;7533;51.278;12.588;2022-12-31T08:52:39;99571.91;;;22.20;64.11
14882;BME280;7533;51.278;12.588;2022-12-31T08:57:52;99585.41;;;22.20;63.99
14882;BME280;7533;51.278;12.588;2022-12-31T09:03:14;99591.84;;;21.85;62.80
14882;BME280;7533;51.278;12.588;2022-12-31T09:08:27;99597.00;;;21.54;62.12
14882;BME280;7533;51.278;12.588;2022-12-31T09:13:53;99611.09;;;21.58;62.10
14882;BME280;7533;51.278;12.588;2022-12-31T09:19:00;99618.78;;;21.62;62.14
14882;BME280;7533;51.278;12.588;2022-12-31T09:24:04;99613.66;;;21.59;63.15
14882;BME280;7533;51.278;12.588;2022-12-31T09:29:19;99606.03;;;21.87;63.77
14882;BME280;7533;51.278;12.588;2022-12-31T09:34:29;99618.97;;;21.93;64.47
14882;BME280;7533;51.278;12.588;2022-12-31T09:39:41;99613.19;;;22.09;64.82
14882;BME280;7533;51.278;12.588;2022-12-31T09:45:15;99613.94;;;22.11;65.05
14882;BME280;7533;51.278;12.588;2022-12-31T09:55:56;99611.13;;;22.24;65.55
14882;BME280;7533;51.278;12.588;2022-12-31T10:01:15;99608.53;;;22.22;65.80
14882;BME280;7533;51.278;12.588;2022-12-31T10:06:24;99619.78;;;22.27;65.77
14882;BME280;7533;51.278;12.588;2022-12-31T10:11:34;99610.75;;;22.28;65.66
14882;BME280;7533;51.278;12.588;2022-12-31T10:17:02;99617.09;;;22.27;65.85
14882;BME280;7533;51.278;12.588;2022-12-31T10:22:25;99612.16;;;22.32;66.03
14882;BME280;7533;51.278;12.588;2022-12-31T10:27:43;99614.25;;;22.40;66.05
14882;BME280;7533;51.278;12.588;2022-12-31T10:33:04;99588.25;;;22.39;66.04
14882;BME280;7533;51.278;12.588;2022-12-31T10:38:21;99586.53;;;22.38;66.12
14882;BME280;7533;51.278;12.588;2022-12-31T10:44:04;99559.84;;;22.35;65.97
14882;BME280;7533;51.278;12.588;2022-12-31T10:49:37;99579.81;;;22.32;66.26
14882;BME280;7533;51.278;12.588;2022-12-31T11:00:40;99593.16;;;22.45;65.52
14882;BME280;7533;51.278;12.588;2022-12-31T11:06:21;99596.09;;;22.42;65.50
14882;BME280;7533;51.278;12.588;2022-12-31T11:11:34;99574.97;;;22.47;65.71
14882;BME280;7533;51.278;12.588;2022-12-31T11:16:55;99584.44;;;22.41;66.26
14882;BME280;7533;51.278;12.588;2022-12-31T11:22:23;99575.69;;;22.49;65.80
14882;BME280;7533;51.278;12.588;2022-12-31T11:27:43;99582.69;;;22.52;65.45
14882;BME280;7533;51.278;12.588;2022-12-31T11:33:03;99596.41;;;22.49;66.00
14882;BME280;7533;51.278;12.588;2022-12-31T11:38:20;99592.72;;;22.50;65.74
14882;BME280;7533;51.278;12.588;2022-12-31T11:43:33;99594.47;;;22.51;65.54
14882;BME280;7533;51.278;12.588;2022-12-31T11:48:43;99598.41;;;22.47;65.79
14882;BME280;7533;51.278;12.588;2022-12-31T11:54:13;99589.19;;;22.49;65.66
14882;BME280;7533;51.278;12.588;2022-12-31T11:59:20;99590.88;;;22.50;65.64
14882;BME280;7533;51.278;12.588;2022-12-31T12:04:23;99594.56;;;22.49;65.78
14882;BME280;7533;51.278;12.588;2022-12-31T12:09:30;99604.03;;;22.43;65.64
14882;BME280;7533;51.278;12.588;2022-12-31T12:14:35;99605.16;;;22.41;65.97
14882;BME280;7533;51.278;12.588;2022-12-31T12:19:42;99592.69;;;22.40;66.03
14882;BME280;7533;51.278;12.588;2022-12-31T12:24:53;99578.44;;;22.38;66.19
14882;BME280;7533;51.278;12.588;2022-12-31T12:29:57;99576.22;;;22.43;66.19
14882;BME280;7533;51.278;12.588;2022-12-31T12:34:59;99590.03;;;22.50;66.02
14882;BME280;7533;51.278;12.588;2022-12-31T12:40:06;99606.97;;;22.52;65.81
14882;BME280;7533;51.278;12.588;2022-12-31T12:45:15;99613.44;;;22.49;66.02
14882;BME280;7533;51.278;12.588;2022-12-31T12:50:21;99606.44;;;22.58;65.83
14882;BME280;7533;51.278;12.588;2022-12-31T12:55:33;99612.81;;;22.57;65.62
14882;BME280;7533;51.278;12.588;2022-12-31T13:00:45;99614.66;;;22.56;65.61
14882;BME280;7533;51.278;12.588;2022-12-31T13:06:01;99618.47;;;22.54;65.75
14882;BME280;7533;51.278;12.588;2022-12-31T13:11:17;99626.81;;;22.51;65.58
14882;BME280;7533;51.278;12.588;2022-12-31T13:16:35;99615.28;;;22.49;65.58
14882;BME280;7533;51.278;12.588;2022-12-31T13:21:47;99626.09;;;22.49;65.64
14882;BME280;7533;51.278;12.588;2022-12-31T13:26:59;99638.47;;;22.51;65.51
14882;BME280;7533;51.278;12.588;2022-12-31T13:32:06;99633.94;;;22.52;65.69
14882;BME280;7533;51.278;12.588;2022-12-31T13:37:20;99650.22;;;22.50;65.72
14882;BME280;7533;51.278;12.588;2022-12-31T13:42:30;99659.63;;;22.56;65.49
14882;BME280;7533;51.278;12.588;2022-12-31T13:47:41;99666.25;;;22.63;65.41
14882;BME280;7533;51.278;12.588;2022-12-31T13:52:50;99673.53;;;22.72;65.39
14882;BME280;7533;51.278;12.588;2022-12-31T13:58:02;99669.47;;;22.78;65.13
14882;BME280;7533;51.278;12.588;2022-12-31T14:03:10;99669.69;;;22.86;64.97
14882;BME280;7533;51.278;12.588;2022-12-31T14:08:15;99671.19;;;22.90;64.93
14882;BME280;7533;51.278;12.588;2022-12-31T14:13:30;99670.66;;;22.96;64.68
14882;BME280;7533;51.278;12.588;2022-12-31T14:18:39;99688.75;;;23.05;64.67
14882;BME280;7533;51.278;12.588;2022-12-31T14:23:50;99712.53;;;23.11;64.54
14882;BME280;7533;51.278;12.588;2022-12-31T14:29:05;99692.38;;;23.15;64.51
14882;BME280;7533;51.278;12.588;2022-12-31T14:34:18;99691.72;;;23.23;64.32
14882;BME280;7533;51.278;12.588;2022-12-31T14:39:41;99695.16;;;23.04;64.41
14882;BME280;7533;51.278;12.588;2022-12-31T14:44:58;99716.38;;;23.30;64.00
14882;BME280;7533;51.278;12.588;2022-12-31T14:50:11;99733.47;;;23.40;63.75
14882;BME280;7533;51.278;12.588;2022-12-31T14:55:24;99749.81;;;23.38;63.62
14882;BME280;7533;51.278;12.588;2022-12-31T15:00:32;99751.41;;;23.41;63.50
14882;BME280;7533;51.278;12.588;2022-12-31T15:05:37;99745.16;;;23.40;63.53
14882;BME280;7533;51.278;12.588;2022-12-31T15:10:46;99737.47;;;23.45;63.51
14882;BME280;7533;51.278;12.588;2022-12-31T15:16:13;99744.34;;;23.49;63.41
14882;BME280;7533;51.278;12.588;2022-12-31T15:21:35;99747.63;;;23.53;63.16
14882;BME280;7533;51.278;12.588;2022-12-31T15:26:46;99751.44;;;23.50;63.54
14882;BME280;7533;51.278;12.588;2022-12-31T15:31:53;99752.00;;;23.65;63.44
14882;BME280;7533;51.278;12.588;2022-12-31T15:36:59;99758.75;;;23.60;63.41
14882;BME280;7533;51.278;12.588;2022-12-31T15:42:02;99737.50;;;23.66;63.39
14882;BME280;7533;51.278;12.588;2022-12-31T15:47:29;99752.50;;;23.59;63.40
14882;BME280;7533;51.278;12.588;2022-12-31T15:52:40;99746.34;;;23.68;63.23
14882;BME280;7533;51.278;12.588;2022-12-31T15:57:44;99745.81;;;23.74;63.28
14882;BME280;7533;51.278;12.588;2022-12-31T16:02:51;99727.84;;;23.73;63.09
14882;BME280;7533;51.278;12.588;2022-12-31T16:07:55;99728.00;;;23.72;63.26
14882;BME280;7533;51.278;12.588;2022-12-31T16:12:59;99733.31;;;23.83;62.93
14882;BME280;7533;51.278;12.588;2022-12-31T16:18:07;99751.69;;;23.89;62.87
14882;BME280;7533;51.278;12.588;2022-12-31T16:23:18;99747.88;;;23.92;62.62
14882;BME280;7533;51.278;12.588;2022-12-31T16:28:25;99744.19;;;23.93;62.38
14882;BME280;7533;51.278;12.588;2022-12-31T16:33:31;99733.81;;;23.98;62.48
14882;BME280;7533;51.278;12.588;2022-12-31T16:38:35;99724.47;;;24.02;62.51
14882;BME280;7533;51.278;12.588;2022-12-31T16:43:41;99733.84;;;23.77;63.12
14882;BME280;7533;51.278;12.588;2022-12-31T16:48:48;99721.88;;;24.00;62.50
14882;BME280;7533;51.278;12.588;2022-12-31T16:53:51;99743.91;;;23.96;62.62
14882;BME280;7533;51.278;12.588;2022-12-31T16:58:59;99756.81;;;23.41;63.36
14882;BME280;7533;51.278;12.588;2022-12-31T17:04:08;99767.47;;;23.84;62.61
14882;BME280;7533;51.278;12.588;2022-12-31T17:09:13;99747.81;;;24.13;62.40
14882;BME280;7533;51.278;12.588;2022-12-31T17:14:22;99766.59;;;24.45;61.39
14882;BME280;7533;51.278;12.588;2022-12-31T17:19:34;99755.06;;;24.43;61.79
14882;BME280;7533;51.278;12.588;2022-12-31T17:24:39;99767.19;;;24.18;62.42
14882;BME280;7533;51.278;12.588;2022-12-31T17:29:42;99782.19;;;24.01;63.09
14882;BME280;7533;51.278;12.588;2022-12-31T17:34:49;99777.63;;;23.92;63.06
14882;BME280;7533;51.278;12.588;2022-12-31T17:39:53;99784.59;;;23.73;63.43
14882;BME280;7533;51.278;12.588;2022-12-31T17:45:20;99770.97;;;23.75;63.28
14882;BME280;7533;51.278;12.588;2022-12-31T17:50:26;99773.25;;;23.59;63.64
14882;BME280;7533;51.278;12.588;2022-12-31T17:55:29;99758.56;;;23.72;63.16
14882;BME280;7533;51.278;12.588;2022-12-31T18:00:32;99758.78;;;23.81;62.67
14882;BME280;7533;51.278;12.588;2022-12-31T18:05:37;99735.38;;;23.49;63.52
14882;BME280;7533;51.278;12.588;2022-12-31T18:10:41;99763.81;;;23.64;59.02
14882;BME280;7533;51.278;12.588;2022-12-31T18:15:45;99753.06;;;23.74;58.95
14882;BME280;7533;51.278;12.588;2022-12-31T18:20:51;99759.97;;;23.46;61.28
14882;BME280;7533;51.278;12.588;2022-12-31T18:25:54;99765.34;;;23.88;60.87
14882;BME280;7533;51.278;12.588;2022-12-31T18:30:57;99756.19;;;23.58;61.87
14882;BME280;7533;51.278;12.588;2022-12-31T18:36:01;99753.38;;;23.81;61.49
14882;BME280;7533;51.278;12.588;2022-12-31T18:41:15;99745.47;;;23.68;61.52
14882;BME280;7533;51.278;12.588;2022-12-31T18:46:21;99749.63;;;23.72;61.78
14882;BME280;7533;51.278;12.588;2022-12-31T18:51:26;99750.16;;;23.66;61.99
14882;BME280;7533;51.278;12.588;2022-12-31T18:56:33;99744.53;;;23.79;61.52
14882;BME280;7533;51.278;12.588;2022-12-31T19:01:37;99749.06;;;23.78;61.74
14882;BME280;7533;51.278;12.588;2022-12-31T19:06:41;99750.63;;;23.71;61.79
14882;BME280;7533;51.278;12.588;2022-12-31T19:11:44;99754.16;;;23.71;61.81
14882;BME280;7533;51.278;12.588;2022-12-31T19:16:50;99749.31;;;23.65;62.05
14882;BME280;7533;51.278;12.588;2022-12-31T19:21:56;99745.53;;;23.36;62.60
14882;BME280;7533;51.278;12.588;2022-12-31T19:26:59;99761.00;;;23.55;62.36
14882;BME280;7533;51.278;12.588;2022-12-31T19:32:02;99761.97;;;23.65;61.93
14882;BME280;7533;51.278;12.588;2022-12-31T19:37:09;99766.53;;;23.53;62.19
14882;BME280;7533;51.278;12.588;2022-12-31T19:42:14;99761.72;;;23.57;62.16
14882;BME280;7533;51.278;12.588;2022-12-31T19:47:17;99759.16;;;23.55;62.23
14882;BME280;7533;51.278;12.588;2022-12-31T19:52:21;99769.09;;;23.55;62.31
14882;BME280;7533;51.278;12.588;2022-12-31T19:57:24;99764.25;;;23.48;62.46
14882;BME280;7533;51.278;12.588;2022-12-31T20:02:26;99765.69;;;23.53;62.32
14882;BME280;7533;51.278;12.588;2022-12-31T20:07:31;99771.34;;;23.49;62.23
14882;BME280;7533;51.278;12.588;2022-12-31T20:12:34;99770.81;;;23.56;62.29
14882;BME280;7533;51.278;12.588;2022-12-31T20:17:44;99778.72;;;23.47;62.69
14882;BME280;7533;51.278;12.588;2022-12-31T20:22:49;99783.16;;;23.48;62.57
14882;BME280;7533;51.278;12.588;2022-12-31T20:27:52;99790.13;;;23.51;62.38
14882;BME280;7533;51.278;12.588;2022-12-31T20:32:55;99782.16;;;23.49;62.33
14882;BME280;7533;51.278;12.588;2022-12-31T20:38:00;99785.00;;;23.48;62.29
14882;BME280;7533;51.278;12.588;2022-12-31T20:43:03;99781.69;;;23.44;62.52
14882;BME280;7533;51.278;12.588;2022-12-31T20:48:05;99787.28;;;23.64;61.96
14882;BME280;7533;51.278;12.588;2022-12-31T20:53:10;99781.19;;;23.71;61.88
14882;BME280;7533;51.278;12.588;2022-12-31T20:58:12;99775.81;;;23.60;62.10
14882;BME280;7533;51.278;12.588;2022-12-31T21:03:15;99801.06;;;23.49;62.48
14882;BME280;7533;51.278;12.588;2022-12-31T21:08:41;99813.84;;;23.47;62.59
14882;BME280;7533;51.278;12.588;2022-12-31T21:13:44;99814.22;;;23.43;62.63
14882;BME280;7533;51.278;12.588;2022-12-31T21:18:47;99825.75;;;23.45;62.53
14882;BME280;7533;51.278;12.588;2022-12-31T21:23:51;99839.19;;;23.35;62.71
14882;BME280;7533;51.278;12.588;2022-12-31T21:28:54;99846.13;;;23.49;62.39
14882;BME280;7533;51.278;12.588;2022-12-31T21:33:57;99852.28;;;23.40;62.51
14882;BME280;7533;51.278;12.588;2022-12-31T21:39:02;99851.31;;;23.41;62.52
14882;BME280;7533;51.278;12.588;2022-12-31T21:44:05;99856.31;;;23.45;62.39
14882;BME280;7533;51.278;12.588;2022-12-31T21:49:07;99854.28;;;23.38;62.51
14882;BME280;7533;51.278;12.588;2022-12-31T21:54:12;99854.28;;;23.38;62.62
14882;BME280;7533;51.278;12.588;2022-12-31T21:59:35;99856.97;;;23.38;62.49
14882;BME280;7533;51.278;12.588;2022-12-31T22:05:16;99845.31;;;23.37;62.59
14882;BME280;7533;51.278;12.588;2022-12-31T22:10:27;99842.75;;;23.57;62.11
14882;BME280;7533;51.278;12.588;2022-12-31T22:15:34;99847.06;;;23.27;62.80
14882;BME280;7533;51.278;12.588;2022-12-31T22:20:37;99849.28;;;23.22;63.13
14882;BME280;7533;51.278;12.588;2022-12-31T22:25:41;99848.16;;;23.36;62.51
14882;BME280;7533;51.278;12.588;2022-12-31T22:30:46;99851.94;;;23.33;62.59
14882;BME280;7533;51.278;12.588;2022-12-31T22:35:56;99847.94;;;23.28;62.71
14882;BME280;7533;51.278;12.588;2022-12-31T22:41:02;99863.59;;;23.34;62.67
14882;BME280;7533;51.278;12.588;2022-12-31T22:46:06;99861.69;;;23.25;62.76
14882;BME280;7533;51.278;12.588;2022-12-31T22:51:10;99870.84;;;23.33;62.75
14882;BME280;7533;51.278;12.588;2022-12-31T22:56:16;99886.09;;;23.66;61.68
14882;BME280;7533;51.278;12.588;2022-12-31T23:01:21;99901.00;;;23.49;57.35
14882;BME280;7533;51.278;12.588;2022-12-31T23:06:24;99916.00;;;22.99;54.77
14882;BME280;7533;51.278;12.588;2022-12-31T23:11:29;99914.50;;;22.95;53.13
14882;BME280;7533;51.278;12.588;2022-12-31T23:16:31;99904.06;;;23.13;52.72
14882;BME280;7533;51.278;12.588;2022-12-31T23:21:52;99905.50;;;23.60;53.41
14882;BME280;7533;51.278;12.588;2022-12-31T23:27:14;99922.28;;;23.43;54.77
14882;BME280;7533;51.278;12.588;2022-12-31T23:32:17;99927.81;;;23.73;54.84
14882;BME280;7533;51.278;12.588;2022-12-31T23:37:20;99928.03;;;23.82;55.39
14882;BME280;7533;51.278;12.588;2022-12-31T23:42:25;99930.56;;;23.51;57.01
14882;BME280;7533;51.278;12.588;2022-12-31T23:47:27;99939.16;;;23.13;58.45
14882;BME280;7533;51.278;12.588;2022-12-31T23:52:30;99946.41;;;23.12;58.76
14882;BME280;7533;51.278;12.588;2022-12-31T23:57:34;99949.59;;;22.95;59.39
